Terminal Aerodrome Forecast
Issued by NWS Binghamton, NY

Home | Current Version | Previous Version | Text Only | Print | Product List | Glossary On
Versions: 1 2 3 4 5 6 7 8 9 10 11 12 13 14 15 16 17 18 19 20 21 22
170
FTUS41 KBGM 200520
TAFBGM
TAF
KBGM 200520Z 2006/2106 VRB03KT P6SM BKN020
     FM201400 15007KT P6SM BKN035
     FM201800 16008KT P6SM BKN025
     FM202100 17008KT P6SM OVC008
     FM202200 17008KT 2SM -RA OVC007
     FM210300 18007KT 4SM BR OVC003=

USA.gov is the U.S. government's official web portal to all federal, state and local government web resources and services.